Time;durP1;ratioP1;P1;durP2;ratioP2;P2;SDS_P1;SDS_P2;PMS_P1;PMS_P2;Temp;Humidity;BMP_temperature;BMP_pressure;BME280_temperature;BME280_humidity;BME280_pressure;Samples;Min_cycle;Max_cycle;Signal;HPM_P1;HPM_P2
2021/06/19 00:00:36;;;;;;;13.27;6.27;;;25.30;99.90;;;;;;5083788;28;20270;-40
2021/06/19 00:03:03;;;;;;;8.70;6.10;;;25.30;99.90;;;;;;5081439;28;20434;-43
2021/06/19 00:05:29;;;;;;;6.33;5.70;;;25.20;99.90;;;;;;5085604;28;20438;-40
2021/06/19 00:07:55;;;;;;;7.50;5.57;;;25.20;99.90;;;;;;5069657;28;20461;-40
2021/06/19 00:10:22;;;;;;;6.70;5.50;;;25.20;99.90;;;;;;5086817;28;20790;-40
2021/06/19 00:12:50;;;;;;;7.03;6.00;;;25.20;99.90;;;;;;5090745;28;20517;-42
2021/06/19 00:15:18;;;;;;;6.57;5.97;;;25.10;99.90;;;;;;5073582;28;20454;-43
2021/06/19 00:17:45;;;;;;;6.80;6.10;;;25.10;99.90;;;;;;5086756;28;20434;-40
2021/06/19 00:20:20;;;;;;;11.73;5.70;;;25.00;99.90;;;;;;5087391;28;20569;-40
2021/06/19 00:22:46;;;;;;;5.87;5.27;;;25.00;99.90;;;;;;5060255;28;20414;-39
2021/06/19 00:25:15;;;;;;;7.03;5.10;;;24.90;99.90;;;;;;5087444;28;20442;-40
2021/06/19 00:27:41;;;;;;;5.90;4.97;;;24.90;99.90;;;;;;5082856;28;20430;-40
2021/06/19 00:30:08;;;;;;;5.90;4.83;;;24.90;99.90;;;;;;5090485;28;20414;-40
2021/06/19 00:32:34;;;;;;;5.90;4.47;;;24.90;99.90;;;;;;5063503;28;20450;-40
2021/06/19 00:35:00;;;;;;;5.23;4.67;;;24.90;99.90;;;;;;5086586;28;20423;-40
2021/06/19 00:37:26;;;;;;;5.30;4.30;;;24.80;99.90;;;;;;5087901;28;21139;-40
2021/06/19 00:39:52;;;;;;;5.60;4.30;;;24.80;99.90;;;;;;5089162;28;21009;-40
2021/06/19 00:42:21;;;;;;;5.67;4.70;;;24.80;99.90;;;;;;5090779;28;20200;-40
2021/06/19 00:44:47;;;;;;;7.63;4.80;;;24.80;99.90;;;;;;5091185;28;20566;-40
2021/06/19 00:47:14;;;;;;;5.67;4.23;;;24.70;99.90;;;;;;5089568;28;20529;-40
2021/06/19 00:49:41;;;;;;;4.17;3.73;;;24.70;99.90;;;;;;5077997;28;20861;-39
2021/06/19 00:52:07;;;;;;;5.30;4.20;;;24.60;99.90;;;;;;5090446;28;20425;-40
2021/06/19 00:54:34;;;;;;;7.77;4.03;;;24.60;99.90;;;;;;5090186;28;20422;-40
2021/06/19 00:57:01;;;;;;;6.50;3.97;;;24.60;99.90;;;;;;5090574;28;20792;-41
2021/06/19 00:59:27;;;;;;;5.60;3.60;;;24.50;99.90;;;;;;5089786;28;20521;-40
2021/06/19 01:01:54;;;;;;;7.07;4.60;;;24.40;99.90;;;;;;5089963;28;20462;-41
2021/06/19 01:04:20;;;;;;;6.17;3.53;;;24.30;99.90;;;;;;5063048;28;20467;-40
2021/06/19 01:06:46;;;;;;;4.23;3.83;;;24.30;99.90;;;;;;5081416;28;20428;-40
2021/06/19 01:09:12;;;;;;;3.60;3.30;;;24.20;99.90;;;;;;5089555;28;20765;-40
2021/06/19 01:11:39;;;;;;;3.80;3.50;;;24.20;99.90;;;;;;5090183;28;20291;-39
2021/06/19 01:14:07;;;;;;;4.00;3.30;;;24.20;99.90;;;;;;5086918;28;20427;-40
2021/06/19 01:16:34;;;;;;;8.53;4.30;;;24.10;99.90;;;;;;5088384;28;20461;-40
2021/06/19 01:19:01;;;;;;;3.80;3.33;;;24.00;99.90;;;;;;5075676;28;20463;-40
2021/06/19 01:21:32;;;;;;;6.10;3.20;;;24.00;99.90;;;;;;5082399;28;20463;-39
2021/06/19 01:23:58;;;;;;;3.27;2.93;;;23.90;99.90;;;;;;5089791;28;20920;-40
2021/06/19 01:26:26;;;;;;;3.83;3.53;;;24.00;99.90;;;;;;5089861;28;20426;-40
2021/06/19 01:28:54;;;;;;;3.27;2.97;;;23.90;99.90;;;;;;5089567;28;20422;-39
2021/06/19 01:31:20;;;;;;;3.30;3.00;;;24.00;99.90;;;;;;5089760;28;20510;-40
2021/06/19 01:33:47;;;;;;;2.90;2.70;;;24.00;99.90;;;;;;5088648;28;20465;-39
2021/06/19 01:36:15;;;;;;;3.80;2.90;;;23.90;99.90;;;;;;5085095;28;20501;-39
2021/06/19 01:38:49;;;;;;;3.67;2.90;;;23.80;99.90;;;;;;5089667;28;20521;-40
2021/06/19 01:41:16;;;;;;;4.00;3.00;;;23.80;99.90;;;;;;5088093;28;20465;-40
2021/06/19 01:43:43;;;;;;;4.23;2.90;;;23.70;99.90;;;;;;5084944;28;20432;-40
2021/06/19 01:46:10;;;;;;;3.33;2.73;;;23.70;99.90;;;;;;5086559;28;20861;-40
2021/06/19 01:48:36;;;;;;;3.53;2.33;;;23.70;99.90;;;;;;5082208;28;20438;-39
2021/06/19 01:51:02;;;;;;;2.90;2.60;;;23.70;99.90;;;;;;5066910;28;20420;-39
2021/06/19 01:53:28;;;;;;;3.63;2.70;;;23.60;99.90;;;;;;5078830;28;20419;-40
2021/06/19 01:55:53;;;;;;;3.43;2.53;;;23.60;99.90;;;;;;5071543;28;20231;-40
2021/06/19 01:58:19;;;;;;;4.07;2.70;;;23.60;99.90;;;;;;5089534;28;20200;-40
2021/06/19 02:00:45;;;;;;;3.30;2.70;;;23.60;99.90;;;;;;5088924;28;20248;-39
2021/06/19 02:03:11;;;;;;;3.17;2.47;;;23.60;99.90;;;;;;5081059;28;20885;-40
2021/06/19 02:05:37;;;;;;;3.40;3.07;;;23.50;99.90;;;;;;5064770;28;20254;-41
2021/06/19 02:08:05;;;;;;;4.20;2.87;;;23.50;99.90;;;;;;5083998;28;20665;-40
2021/06/19 02:10:35;;;;;;;2.90;2.53;;;23.40;99.90;;;;;;5082998;28;20189;-40
2021/06/19 02:13:04;;;;;;;3.03;2.73;;;23.20;99.90;;;;;;5089252;28;20451;-40
2021/06/19 02:15:31;;;;;;;4.90;3.17;;;23.10;99.90;;;;;;5088993;28;20450;-39
2021/06/19 02:17:56;;;;;;;5.00;2.70;;;23.10;99.90;;;;;;5081963;28;20997;-40
2021/06/19 02:20:24;;;;;;;3.27;2.97;;;23.00;99.90;;;;;;5085876;28;20565;-39
2021/06/19 02:22:50;;;;;;;5.20;2.93;;;22.90;99.90;;;;;;5069055;28;20675;-39
2021/06/19 02:25:18;;;;;;;3.33;3.03;;;22.80;99.90;;;;;;5088757;28;20423;-40
2021/06/19 02:27:52;;;;;;;3.80;3.10;;;22.90;99.90;;;;;;5089038;28;21122;-39
2021/06/19 02:30:19;;;;;;;7.20;3.60;;;22.90;99.90;;;;;;5033123;28;20438;-39
2021/06/19 02:32:45;;;;;;;3.63;3.17;;;22.90;99.90;;;;;;5076707;28;20953;-40
2021/06/19 02:35:11;;;;;;;4.53;3.03;;;22.90;99.90;;;;;;5085320;28;20471;-39
2021/06/19 02:37:37;;;;;;;3.17;2.90;;;22.90;99.90;;;;;;5088823;28;20184;-40
2021/06/19 02:40:05;;;;;;;3.33;3.03;;;23.00;99.90;;;;;;5086925;28;20535;-39
2021/06/19 02:42:31;;;;;;;3.73;3.00;;;23.00;99.90;;;;;;5088399;28;20262;-40
2021/06/19 02:44:56;;;;;;;4.17;3.17;;;23.00;99.90;;;;;;5088240;28;20961;-39
2021/06/19 02:47:22;;;;;;;4.27;3.57;;;23.00;99.90;;;;;;5087275;28;20215;-39
2021/06/19 02:49:48;;;;;;;3.97;2.93;;;23.00;99.90;;;;;;5052376;28;20861;-39
2021/06/19 02:52:13;;;;;;;4.53;3.10;;;23.00;99.90;;;;;;5060409;28;20200;-39
2021/06/19 02:54:40;;;;;;;2.60;2.30;;;23.00;99.90;;;;;;5082166;28;20192;-40
2021/06/19 02:57:09;;;;;;;3.07;2.87;;;23.00;99.90;;;;;;5079625;28;20231;-40
2021/06/19 02:59:38;;;;;;;3.87;2.53;;;23.00;99.90;;;;;;5049474;28;20427;-40
2021/06/19 03:02:04;;;;;;;2.80;2.60;;;23.00;99.90;;;;;;5081754;28;20415;-40
2021/06/19 03:04:30;;;;;;;4.83;2.90;;;23.00;99.90;;;;;;5058424;28;20788;-40
2021/06/19 03:06:56;;;;;;;2.80;2.60;;;23.00;99.90;;;;;;5063042;28;20184;-40
2021/06/19 03:09:22;;;;;;;3.17;2.37;;;23.00;99.90;;;;;;5077583;28;20521;-40
2021/06/19 03:11:48;;;;;;;2.50;2.30;;;22.90;99.90;;;;;;5066170;28;20854;-42
2021/06/19 03:14:16;;;;;;;2.60;2.30;;;23.00;99.90;;;;;;5087938;28;20446;-39
2021/06/19 03:16:42;;;;;;;2.67;2.40;;;23.00;99.90;;;;;;5070259;28;20669;-40
2021/06/19 03:19:09;;;;;;;2.77;2.23;;;22.90;99.90;;;;;;5081129;28;21015;-39
2021/06/19 03:21:36;;;;;;;3.83;2.30;;;22.90;99.90;;;;;;5065502;28;20504;-40
2021/06/19 03:24:02;;;;;;;3.60;2.40;;;22.80;99.90;;;;;;5088028;28;20497;-39
2021/06/19 03:26:28;;;;;;;3.03;2.73;;;22.70;99.90;;;;;;5087874;28;20426;-40
2021/06/19 03:28:54;;;;;;;2.10;1.90;;;22.60;99.90;;;;;;5052762;28;20465;-39
2021/06/19 03:31:19;;;;;;;4.90;2.77;;;22.60;99.90;;;;;;5079593;28;20242;-39
2021/06/19 03:33:45;;;;;;;3.87;2.30;;;22.50;99.90;;;;;;5084047;28;20200;-39
2021/06/19 03:36:11;;;;;;;5.30;2.00;;;22.50;99.90;;;;;;5081235;28;20195;-39
2021/06/19 03:38:36;;;;;;;5.40;2.40;;;22.50;99.90;;;;;;5079348;28;20196;-40
2021/06/19 03:41:02;;;;;;;3.40;2.70;;;22.50;99.90;;;;;;5085577;28;20717;-39
2021/06/19 03:43:28;;;;;;;2.80;2.10;;;22.50;99.90;;;;;;5080673;28;20282;-39
2021/06/19 03:45:53;;;;;;;2.73;2.50;;;22.60;99.90;;;;;;5088145;28;20267;-39
2021/06/19 03:48:19;;;;;;;2.70;2.40;;;22.60;99.90;;;;;;5071058;28;20192;-40
2021/06/19 03:50:45;;;;;;;4.43;2.30;;;22.60;99.90;;;;;;5084291;28;20180;-39
2021/06/19 03:53:11;;;;;;;3.33;2.47;;;22.60;99.90;;;;;;5088782;28;20191;-39
2021/06/19 03:55:36;;;;;;;1.87;1.77;;;22.50;99.90;;;;;;5091851;28;20275;-39
2021/06/19 03:58:02;;;;;;;3.80;2.10;;;22.40;99.90;;;;;;5091551;28;20389;-39
2021/06/19 04:00:29;;;;;;;2.00;1.90;;;22.50;99.90;;;;;;5091011;28;20216;-39
2021/06/19 04:02:56;;;;;;;3.53;2.17;;;22.50;99.90;;;;;;5091048;28;20199;-40
2021/06/19 04:05:22;;;;;;;2.07;1.70;;;22.60;99.90;;;;;;5084263;28;20419;-39
2021/06/19 04:07:49;;;;;;;4.83;2.27;;;22.60;99.90;;;;;;5090211;28;20433;-39
2021/06/19 04:10:15;;;;;;;2.20;2.00;;;22.60;99.90;;;;;;5072530;28;20430;-39
2021/06/19 04:12:42;;;;;;;4.40;1.90;;;22.60;99.90;;;;;;5073360;28;20517;-40
2021/06/19 04:15:10;;;;;;;2.77;1.77;;;22.50;99.90;;;;;;5091221;28;20433;-39
2021/06/19 04:17:36;;;;;;;3.60;1.70;;;22.60;99.90;;;;;;5091733;28;20422;-39
2021/06/19 04:20:04;;;;;;;2.20;1.50;;;22.70;99.90;;;;;;5081571;28;21184;-39
2021/06/19 04:22:30;;;;;;;2.00;1.60;;;22.60;99.90;;;;;;5086894;28;20559;-39
2021/06/19 04:24:55;;;;;;;1.80;1.70;;;22.60;99.90;;;;;;5091152;28;20430;-39
2021/06/19 04:27:21;;;;;;;2.00;1.50;;;22.60;99.90;;;;;;5089187;28;20212;-39
2021/06/19 04:29:48;;;;;;;2.80;1.83;;;22.60;99.90;;;;;;5090346;28;20176;-39
2021/06/19 04:32:15;;;;;;;1.77;1.67;;;22.60;99.90;;;;;;5086793;28;21043;-39
2021/06/19 04:34:41;;;;;;;1.83;1.73;;;22.70;99.90;;;;;;5081796;28;20506;-39
2021/06/19 04:37:11;;;;;;;1.70;1.60;;;22.60;99.90;;;;;;5087969;28;20410;-39
2021/06/19 04:39:40;;;;;;;1.47;1.37;;;22.70;99.90;;;;;;5084958;28;20768;-39
2021/06/19 04:42:08;;;;;;;2.07;1.87;;;22.70;99.90;;;;;;5090658;28;20442;-39
2021/06/19 04:47:08;;;;;;;3.37;1.40;;;22.70;99.90;;;;;;5090886;28;20484;-39
2021/06/19 04:49:33;;;;;;;1.80;1.70;;;22.70;99.90;;;;;;5064383;28;21205;-39
2021/06/19 04:51:59;;;;;;;1.40;1.30;;;22.70;99.90;;;;;;5071307;28;20509;-39
2021/06/19 04:54:25;;;;;;;1.80;1.70;;;22.70;99.90;;;;;;5089821;28;20183;-39
2021/06/19 04:56:51;;;;;;;1.73;1.63;;;22.80;99.90;;;;;;5090608;28;20184;-39
2021/06/19 04:59:17;;;;;;;2.47;1.80;;;22.80;99.90;;;;;;5089241;28;20192;-40
2021/06/19 05:01:43;;;;;;;1.73;1.53;;;22.80;99.90;;;;;;5072849;28;21242;-39
2021/06/19 05:04:08;;;;;;;3.00;1.90;;;22.80;99.90;;;;;;5086509;28;20177;-39
2021/06/19 05:06:35;;;;;;;2.33;2.13;;;22.80;99.90;;;;;;5068788;28;20284;-39
2021/06/19 05:09:02;;;;;;;2.30;1.40;;;22.90;99.90;;;;;;5081971;28;20184;-39
2021/06/19 05:11:28;;;;;;;1.70;1.60;;;22.90;99.90;;;;;;5072623;28;20545;-39
2021/06/19 05:13:53;;;;;;;1.53;1.43;;;23.00;99.90;;;;;;5089052;28;21076;-39
2021/06/19 05:16:19;;;;;;;6.33;1.87;;;23.00;99.90;;;;;;5090568;28;20199;-39
2021/06/19 05:18:45;;;;;;;4.37;1.67;;;23.10;99.90;;;;;;5084869;28;20243;-39
2021/06/19 05:21:10;;;;;;;2.10;1.90;;;23.10;99.90;;;;;;5078348;28;20216;-39
2021/06/19 05:23:36;;;;;;;2.80;2.07;;;23.00;99.90;;;;;;5089611;28;20584;-39
2021/06/19 05:26:02;;;;;;;1.87;1.60;;;23.00;99.90;;;;;;5090253;28;20181;-39
2021/06/19 05:28:27;;;;;;;1.97;1.77;;;23.00;99.90;;;;;;5089808;28;20184;-40
2021/06/19 05:30:53;;;;;;;1.57;1.47;;;23.10;99.90;;;;;;5089591;28;20828;-39
2021/06/19 05:33:19;;;;;;;3.00;1.90;;;23.20;99.90;;;;;;5089739;28;20677;-40
2021/06/19 05:35:45;;;;;;;3.20;2.20;;;23.20;99.90;;;;;;5086380;28;20249;-39
2021/06/19 05:38:10;;;;;;;1.60;1.50;;;23.30;99.90;;;;;;5069002;28;20195;-40
2021/06/19 05:40:36;;;;;;;3.90;1.97;;;23.40;99.90;;;;;;5087636;28;20245;-39
2021/06/19 05:43:02;;;;;;;1.87;1.77;;;23.50;99.90;;;;;;5089653;28;20204;-39
2021/06/19 05:45:27;;;;;;;3.73;1.83;;;23.60;99.90;;;;;;5089942;28;20192;-39
2021/06/19 05:47:53;;;;;;;2.87;2.23;;;23.60;99.90;;;;;;5089749;28;20196;-40
2021/06/19 05:50:19;;;;;;;3.33;2.00;;;23.60;99.90;;;;;;5082033;28;20193;-39
2021/06/19 05:52:44;;;;;;;2.00;1.77;;;23.60;99.90;;;;;;5085233;28;20212;-40
2021/06/19 05:55:10;;;;;;;2.00;1.80;;;23.70;99.90;;;;;;5077390;28;20192;-40
2021/06/19 05:57:37;;;;;;;2.23;2.03;;;23.70;99.90;;;;;;5084695;28;20218;-39
2021/06/19 06:00:08;;;;;;;4.33;2.03;;;23.80;99.90;;;;;;5078301;28;20856;-40
2021/06/19 06:02:33;;;;;;;1.60;1.50;;;23.90;99.90;;;;;;5069196;28;20431;-39
2021/06/19 06:04:59;;;;;;;2.00;1.70;;;24.00;99.90;;;;;;5072529;28;20864;-39
2021/06/19 06:07:25;;;;;;;2.50;2.30;;;24.10;99.90;;;;;;5087037;28;20199;-39
2021/06/19 06:09:50;;;;;;;1.90;1.60;;;24.10;99.90;;;;;;5082548;28;20199;-39
2021/06/19 06:12:16;;;;;;;2.13;1.90;;;24.10;99.90;;;;;;5073046;28;20251;-39
2021/06/19 06:14:42;;;;;;;3.43;1.60;;;24.00;99.90;;;;;;5089345;28;20188;-39
2021/06/19 06:17:07;;;;;;;3.43;1.67;;;24.10;99.90;;;;;;5088883;28;20625;-39
2021/06/19 06:19:34;;;;;;;2.10;1.50;;;24.20;99.90;;;;;;5069359;28;20189;-39
2021/06/19 06:21:59;;;;;;;2.80;1.70;;;24.30;99.90;;;;;;5084613;28;20334;-39
2021/06/19 06:24:25;;;;;;;2.73;1.83;;;24.30;99.90;;;;;;5087841;28;20510;-39
2021/06/19 06:26:51;;;;;;;4.33;2.00;;;24.30;99.90;;;;;;5088813;28;20452;-40
2021/06/19 06:29:17;;;;;;;1.80;1.70;;;24.50;99.90;;;;;;5088458;28;20195;-40
2021/06/19 06:31:42;;;;;;;1.73;1.63;;;24.70;99.90;;;;;;5089064;28;20188;-40
2021/06/19 06:34:08;;;;;;;3.33;1.90;;;24.80;99.90;;;;;;5087918;28;20176;-40
2021/06/19 06:36:34;;;;;;;3.77;1.90;;;24.90;99.90;;;;;;5064179;28;20192;-40
2021/06/19 06:39:03;;;;;;;1.97;1.77;;;25.00;99.90;;;;;;5085111;28;20199;-39
2021/06/19 06:41:29;;;;;;;2.73;1.70;;;25.10;99.90;;;;;;5086761;28;20215;-40
2021/06/19 06:43:55;;;;;;;1.70;1.57;;;25.10;99.90;;;;;;5070284;28;20854;-41
2021/06/19 06:46:20;;;;;;;2.20;1.70;;;25.10;99.90;;;;;;5070660;28;20302;-39
2021/06/19 06:48:48;;;;;;;2.03;1.73;;;25.10;99.90;;;;;;5087820;28;20561;-39
2021/06/19 06:51:14;;;;;;;2.47;1.50;;;25.20;99.90;;;;;;5080040;28;20249;-40
2021/06/19 06:53:39;;;;;;;3.00;1.60;;;25.40;99.90;;;;;;5081776;28;20415;-41
2021/06/19 06:56:05;;;;;;;4.00;1.40;;;25.50;99.90;;;;;;5085397;28;20379;-40
2021/06/19 06:58:31;;;;;;;1.57;1.47;;;25.70;99.90;;;;;;5079962;28;20182;-40
2021/06/19 07:00:56;;;;;;;4.13;1.87;;;25.70;99.90;;;;;;5082235;28;20216;-40
2021/06/19 07:03:23;;;;;;;1.60;1.50;;;25.70;99.90;;;;;;5066922;28;20275;-40
2021/06/19 07:05:49;;;;;;;2.57;1.70;;;25.70;99.90;;;;;;5060111;28;20233;-40
2021/06/19 07:08:15;;;;;;;2.60;1.57;;;25.60;99.90;;;;;;5086384;28;20893;-39
2021/06/19 07:10:40;;;;;;;4.30;1.93;;;25.60;99.90;;;;;;5083749;28;20192;-40
2021/06/19 07:13:06;;;;;;;2.37;1.67;;;25.60;99.90;;;;;;5086659;28;20226;-45
2021/06/19 07:15:32;;;;;;;2.10;1.90;;;25.70;99.90;;;;;;5085943;28;20220;-39
2021/06/19 07:17:57;;;;;;;1.97;1.87;;;25.80;99.90;;;;;;5086210;28;20208;-40
2021/06/19 07:20:23;;;;;;;4.57;1.80;;;25.90;99.90;;;;;;5084322;28;20208;-40
2021/06/19 07:22:49;;;;;;;2.60;2.40;;;26.00;99.90;;;;;;5084375;28;20191;-40
2021/06/19 07:25:15;;;;;;;2.27;2.07;;;25.90;99.90;;;;;;5082564;28;20188;-40
2021/06/19 07:27:41;;;;;;;3.70;1.60;;;25.80;99.90;;;;;;5081908;28;20180;-39
2021/06/19 07:30:09;;;;;;;2.03;1.93;;;25.80;99.90;;;;;;5081261;28;20427;-39
2021/06/19 07:32:36;;;;;;;4.07;2.00;;;25.70;99.90;;;;;;5081321;28;20289;-40
2021/06/19 07:35:02;;;;;;;2.20;2.10;;;25.80;99.90;;;;;;5066343;28;20449;-41
2021/06/19 07:37:27;;;;;;;4.43;2.10;;;25.90;99.90;;;;;;5072685;28;20418;-39
2021/06/19 07:39:54;;;;;;;3.97;2.00;;;25.80;99.90;;;;;;5084885;28;20465;-40
2021/06/19 07:42:23;;;;;;;3.20;2.03;;;25.80;99.90;;;;;;5085769;28;20842;-40
2021/06/19 07:44:49;;;;;;;2.07;1.87;;;25.90;99.90;;;;;;5086102;28;20794;-40
2021/06/19 07:47:15;;;;;;;2.53;1.60;;;26.00;99.90;;;;;;5085971;28;20531;-40
2021/06/19 07:49:41;;;;;;;1.73;1.63;;;26.10;99.90;;;;;;5076332;28;20483;-40
2021/06/19 07:52:07;;;;;;;4.67;2.00;;;26.00;99.90;;;;;;5077665;28;20204;-39
2021/06/19 07:54:36;;;;;;;2.50;2.30;;;26.10;99.90;;;;;;5081439;28;20365;-40
2021/06/19 07:57:07;;;;;;;1.50;1.40;;;26.10;99.90;;;;;;5075949;28;20828;-40
2021/06/19 07:59:36;;;;;;;1.40;1.30;;;25.90;98.90;;;;;;5079211;28;20421;-40
2021/06/19 08:02:03;;;;;;;1.57;1.47;;;25.80;99.30;;;;;;5076150;28;20414;-39
2021/06/19 08:04:28;;;;;;;3.23;1.57;;;25.90;99.40;;;;;;5085382;28;20418;-40
2021/06/19 08:06:54;;;;;;;1.60;1.40;;;25.90;99.30;;;;;;5062666;28;20953;-40
2021/06/19 08:09:20;;;;;;;1.53;1.43;;;25.90;98.00;;;;;;5084139;28;20180;-41
2021/06/19 08:11:46;;;;;;;1.77;1.60;;;25.90;98.30;;;;;;5083139;28;20193;-39
2021/06/19 08:14:13;;;;;;;1.77;1.30;;;25.90;98.50;;;;;;5082523;28;20414;-41
2021/06/19 08:16:39;;;;;;;2.37;1.40;;;25.90;99.00;;;;;;5067757;28;20195;-40
2021/06/19 08:19:04;;;;;;;1.33;1.23;;;25.90;98.80;;;;;;5066720;28;20701;-40
2021/06/19 08:21:30;;;;;;;1.17;1.07;;;25.90;98.40;;;;;;5077403;28;20690;-40
2021/06/19 08:23:56;;;;;;;1.37;1.27;;;25.90;97.90;;;;;;5081407;28;20644;-39
2021/06/19 08:26:22;;;;;;;1.20;1.10;;;25.90;98.00;;;;;;5084780;28;20245;-39
2021/06/19 08:28:48;;;;;;;2.50;1.33;;;25.90;98.10;;;;;;5083426;28;21028;-39
2021/06/19 08:31:13;;;;;;;2.80;1.20;;;25.90;98.30;;;;;;5084247;28;20637;-39
2021/06/19 08:33:39;;;;;;;2.60;1.57;;;25.90;98.80;;;;;;5085959;28;20440;-40
2021/06/19 08:36:05;;;;;;;1.60;1.50;;;25.90;97.90;;;;;;5066502;28;20282;-40
2021/06/19 08:38:31;;;;;;;1.73;1.63;;;26.00;98.10;;;;;;5087525;28;20196;-41
2021/06/19 08:40:58;;;;;;;1.73;1.63;;;26.10;98.00;;;;;;5083153;28;20454;-40
2021/06/19 08:43:24;;;;;;;2.10;1.67;;;26.10;98.30;;;;;;5079470;28;20192;-41
2021/06/19 08:45:51;;;;;;;1.70;1.60;;;26.20;98.30;;;;;;5081635;28;20433;-40
2021/06/19 08:48:18;;;;;;;2.93;2.03;;;26.20;98.40;;;;;;5088105;28;20237;-40
2021/06/19 08:50:45;;;;;;;4.23;1.50;;;26.40;98.60;;;;;;5083236;28;20445;-40
2021/06/19 08:53:12;;;;;;;3.10;1.43;;;26.50;97.80;;;;;;5080333;28;20415;-40
2021/06/19 08:55:38;;;;;;;1.40;1.30;;;26.60;97.60;;;;;;5087712;28;20798;-40
2021/06/19 08:58:04;;;;;;;1.03;1.03;;;26.70;97.00;;;;;;5085029;28;20433;-39
2021/06/19 09:00:31;;;;;;;2.00;1.30;;;26.60;96.80;;;;;;5081623;28;20212;-40
2021/06/19 09:02:57;;;;;;;1.23;1.10;;;26.60;97.10;;;;;;5082824;28;20467;-41
2021/06/19 09:05:28;;;;;;;1.07;1.00;;;26.80;96.30;;;;;;5085568;28;20502;-40
2021/06/19 09:07:58;;;;;;;1.20;1.10;;;26.90;95.80;;;;;;5062811;28;20181;-40
2021/06/19 09:10:36;;;;;;;1.60;1.50;;;26.90;95.90;;;;;;5063612;28;20795;-41
2021/06/19 09:13:09;;;;;;;1.53;1.30;;;27.00;96.00;;;;;;5087721;28;20945;-42
2021/06/19 09:15:45;;;;;;;2.00;1.30;;;27.10;96.00;;;;;;5087050;28;20537;-40
2021/06/19 09:18:27;;;;;;;2.60;1.17;;;27.30;95.00;;;;;;5086852;28;20422;-42
2021/06/19 09:21:04;;;;;;;5.10;1.70;;;27.40;94.80;;;;;;5080539;28;20463;-41
2021/06/19 09:23:43;;;;;;;1.63;1.10;;;27.50;95.00;;;;;;5085920;28;20418;-39
2021/06/19 09:26:20;;;;;;;1.10;1.10;;;27.50;95.40;;;;;;5064499;28;20501;-42
2021/06/19 09:29:17;;;;;;;1.30;1.20;;;27.60;94.40;;;;;;5068651;28;20510;-40
2021/06/19 09:31:47;;;;;;;3.50;1.37;;;27.70;94.40;;;;;;5087124;28;20773;-40
2021/06/19 09:34:21;;;;;;;1.50;1.33;;;27.80;95.20;;;;;;5087065;28;20422;-40
2021/06/19 09:37:00;;;;;;;1.27;1.17;;;27.80;94.20;;;;;;5077834;28;20433;-40
2021/06/19 09:39:28;;;;;;;1.40;1.30;;;27.80;94.40;;;;;;5085271;28;20453;-41
2021/06/19 09:41:59;;;;;;;3.17;1.57;;;27.90;93.80;;;;;;5083610;28;97415;-40
2021/06/19 09:44:44;;;;;;;1.40;1.30;;;27.80;93.60;;;;;;5087573;28;20458;-40
2021/06/19 09:47:13;;;;;;;1.50;1.40;;;27.80;93.70;;;;;;5088232;28;20483;-40
2021/06/19 09:49:41;;;;;;;1.90;1.43;;;27.90;92.90;;;;;;5087203;28;21017;-41
2021/06/19 09:52:11;;;;;;;1.57;1.30;;;27.90;93.40;;;;;;5078197;28;20437;-40
2021/06/19 09:54:43;;;;;;;1.47;1.30;;;27.90;93.70;;;;;;5087291;28;20878;-40
2021/06/19 09:57:13;;;;;;;2.03;1.10;;;27.90;94.00;;;;;;5087883;28;20430;-39
2021/06/19 09:59:41;;;;;;;1.53;1.17;;;27.80;93.30;;;;;;5086876;28;20422;-42
2021/06/19 10:02:30;;;;;;;1.50;1.40;;;27.80;93.50;;;;;;5087632;28;20521;-40
2021/06/19 10:04:57;;;;;;;1.40;1.30;;;27.80;93.70;;;;;;5087798;28;20917;-40
2021/06/19 10:07:24;;;;;;;1.47;1.20;;;27.80;93.30;;;;;;5072697;28;20559;-41
2021/06/19 10:09:56;;;;;;;1.20;1.10;;;27.90;93.40;;;;;;5076622;28;20424;-40
2021/06/19 10:12:30;;;;;;;1.80;1.30;;;28.00;92.50;;;;;;5086013;28;20422;-42
2021/06/19 10:15:02;;;;;;;1.50;1.40;;;27.90;92.20;;;;;;5086844;28;20418;-40
2021/06/19 10:17:40;;;;;;;1.57;1.10;;;27.80;92.60;;;;;;5087322;28;20410;-40
2021/06/19 10:20:09;;;;;;;2.03;1.33;;;27.90;93.10;;;;;;5068125;28;21001;-41
2021/06/19 10:22:36;;;;;;;1.83;1.07;;;28.10;92.60;;;;;;5083782;28;20445;-40
2021/06/19 10:25:09;;;;;;;1.50;1.40;;;28.30;92.70;;;;;;5080887;28;20426;-40
2021/06/19 10:27:38;;;;;;;1.40;1.30;;;28.40;92.60;;;;;;5086992;28;20423;-41
2021/06/19 10:30:06;;;;;;;1.40;1.30;;;28.50;92.90;;;;;;5086400;28;20434;-40
2021/06/19 10:32:49;;;;;;;1.87;1.50;;;28.70;93.10;;;;;;5068987;28;20442;-40
2021/06/19 10:35:22;;;;;;;1.33;1.23;;;28.80;91.70;;;;;;5086883;28;20475;-40
2021/06/19 10:37:50;;;;;;;1.37;1.27;;;28.80;91.60;;;;;;5077653;28;20434;-40
2021/06/19 10:40:18;;;;;;;1.60;1.50;;;28.90;92.60;;;;;;5082259;28;20886;-42
2021/06/19 10:42:46;;;;;;;1.50;1.40;;;29.10;92.10;;;;;;5068659;28;20802;-40
2021/06/19 10:45:19;;;;;;;1.90;1.10;;;29.00;91.40;;;;;;5086754;28;20462;-41
2021/06/19 10:48:08;;;;;;;3.07;1.20;;;29.10;91.50;;;;;;5068541;28;20426;-40
2021/06/19 10:50:36;;;;;;;1.27;1.17;;;29.10;91.30;;;;;;5085061;28;20415;-41
2021/06/19 10:53:02;;;;;;;1.33;1.23;;;29.00;89.80;;;;;;5065261;28;20445;-40
2021/06/19 10:55:28;;;;;;;1.13;1.00;;;29.00;90.80;;;;;;5083396;28;20802;-40
2021/06/19 10:57:57;;;;;;;2.90;1.40;;;29.00;90.60;;;;;;5086555;28;20192;-42
2021/06/19 11:00:31;;;;;;;1.50;1.40;;;29.10;90.70;;;;;;5085346;28;20477;-40
2021/06/19 11:03:06;;;;;;;1.53;1.27;;;29.20;90.10;;;;;;5086300;28;20416;-42
2021/06/19 11:05:43;;;;;;;1.57;1.20;;;29.10;90.10;;;;;;5086502;28;20462;-40
2021/06/19 11:08:11;;;;;;;2.30;1.33;;;29.30;91.00;;;;;;5077017;28;20429;-41
2021/06/19 11:10:49;;;;;;;2.50;1.20;;;29.40;91.60;;;;;;5067293;28;20431;-40
2021/06/19 11:13:34;;;;;;;2.03;1.37;;;29.50;91.50;;;;;;5077586;28;20731;-41
2021/06/19 11:16:26;;;;;;;1.80;1.50;;;29.60;91.50;;;;;;5074987;28;20429;-41
2021/06/19 11:18:55;;;;;;;2.90;1.47;;;29.50;89.50;;;;;;5085716;28;21261;-40
2021/06/19 11:21:32;;;;;;;2.27;1.80;;;29.50;90.20;;;;;;5067167;28;20462;-40
2021/06/19 11:24:04;;;;;;;1.57;1.30;;;29.60;90.40;;;;;;5077153;28;20951;-40
2021/06/19 11:27:01;;;;;;;1.53;1.43;;;29.50;89.00;;;;;;5067052;28;20505;-42
2021/06/19 11:29:43;;;;;;;1.70;1.57;;;29.50;90.50;;;;;;5067762;28;20746;-42
2021/06/19 11:32:25;;;;;;;1.43;1.33;;;29.40;87.20;;;;;;5055062;28;20460;-41
2021/06/19 11:34:56;;;;;;;1.70;1.50;;;29.40;89.50;;;;;;5068064;28;20411;-45
2021/06/19 11:37:22;;;;;;;1.40;1.30;;;29.40;90.60;;;;;;5080453;28;20426;-41
2021/06/19 11:39:48;;;;;;;2.53;1.40;;;29.40;89.30;;;;;;5079765;28;20427;-42
2021/06/19 11:42:15;;;;;;;1.97;1.60;;;29.50;89.40;;;;;;5084527;28;20329;-40
2021/06/19 11:44:43;;;;;;;3.80;1.40;;;29.50;88.10;;;;;;5085696;28;20548;-41
2021/06/19 11:47:10;;;;;;;3.90;1.77;;;29.40;86.10;;;;;;5086238;28;20482;-41
2021/06/19 11:49:38;;;;;;;3.43;1.60;;;29.30;87.30;;;;;;5085614;28;20457;-42
2021/06/19 11:52:06;;;;;;;2.13;1.47;;;29.50;90.00;;;;;;5078705;28;20435;-43
2021/06/19 11:54:33;;;;;;;1.70;1.47;;;29.60;91.00;;;;;;5085113;28;20429;-41
2021/06/19 11:56:59;;;;;;;2.17;1.43;;;29.80;88.70;;;;;;5062586;28;20789;-43
2021/06/19 11:59:27;;;;;;;1.47;1.37;;;29.70;85.90;;;;;;5078781;28;20415;-42
2021/06/19 12:01:52;;;;;;;2.30;1.43;;;29.60;86.50;;;;;;5077822;28;20458;-42
2021/06/19 12:04:27;;;;;;;4.77;1.50;;;29.60;85.60;;;;;;5067881;28;20610;-42
2021/06/19 12:06:59;;;;;;;1.90;1.43;;;29.60;85.70;;;;;;5081370;28;20185;-41
2021/06/19 12:09:26;;;;;;;2.80;1.47;;;29.80;86.90;;;;;;5084630;28;20414;-42
2021/06/19 12:11:55;;;;;;;1.73;1.63;;;29.90;86.70;;;;;;5089646;28;20503;-41
2021/06/19 12:14:29;;;;;;;2.33;1.40;;;30.00;85.20;;;;;;5089694;28;20450;-42
2021/06/19 12:17:00;;;;;;;2.23;1.53;;;30.00;84.00;;;;;;5071529;28;20484;-42
2021/06/19 12:19:28;;;;;;;2.00;1.47;;;30.10;87.10;;;;;;5089338;28;20527;-42
2021/06/19 12:22:03;;;;;;;1.50;1.40;;;30.10;84.90;;;;;;5088453;28;20825;-41
2021/06/19 12:24:35;;;;;;;2.07;1.40;;;30.20;84.10;;;;;;5069695;28;20430;-41
2021/06/19 12:27:20;;;;;;;1.60;1.40;;;30.20;84.90;;;;;;5085663;28;20794;-41
2021/06/19 12:29:56;;;;;;;4.50;1.60;;;30.30;83.50;;;;;;5072012;28;20436;-42
2021/06/19 12:32:34;;;;;;;3.73;1.77;;;30.30;83.30;;;;;;5089455;28;20456;-42
2021/06/19 12:35:10;;;;;;;2.77;1.63;;;30.20;84.60;;;;;;5089336;28;20769;-40
2021/06/19 12:37:41;;;;;;;2.33;1.67;;;30.20;83.80;;;;;;5078843;28;20854;-42
2021/06/19 12:40:12;;;;;;;2.40;1.40;;;30.10;82.10;;;;;;5075183;28;20489;-41
2021/06/19 12:42:47;;;;;;;2.00;1.80;;;30.20;88.50;;;;;;5087292;28;20549;-42
2021/06/19 12:45:18;;;;;;;1.80;1.60;;;30.30;89.80;;;;;;5087711;28;20834;-41
2021/06/19 12:47:47;;;;;;;4.13;1.77;;;30.40;84.70;;;;;;5086082;28;20410;-40
2021/06/19 12:50:18;;;;;;;1.63;1.50;;;30.40;82.70;;;;;;5079202;28;20432;-42
2021/06/19 12:52:57;;;;;;;2.03;1.83;;;30.40;84.50;;;;;;5074368;28;20838;-44
2021/06/19 12:55:24;;;;;;;3.97;1.70;;;30.40;84.20;;;;;;5087609;28;20475;-41